Terminal Aerodrome Forecast
Issued by NWS

Home | Current Version | Previous Version | Text Only | Print | Product List | Glossary On
Versions: 1 2 3 4 5 6 7 8 9 10 11 12 13 14 15 16
000
FTUS42 KTAE 300520
TAFDHN
TAF
KDHN 300520Z 3006/3106 17003KT P6SM SKC
     FM301500 18012G22KT P6SM SCT030
     FM310300 19008KT 4SM TSRA SCT015CB BKN030=

USA.gov is the U.S. government's official web portal to all federal, state and local government web resources and services.